Newry, Pennsylvania
Current Conditions -  °F | °C
As of 3:53 PM on Thursday 18 Dec 2014 (Local Time) from KAOO Reporting Station
Overcast Overcast  
Wind Chill: 19°   Ceiling: 2300
Heat Index: 29°   Visibility: 10mi
Dew Point: 21°   Wind: 12mph
Humidity: 72%   Direction: 310°NW
Pressure: 30.07"   Gusts: NA
Location:  40.39°N, 78.44°W
Report Text: KAOO 182053Z AUTO 31010KT 10SM OVC023 M02/M06 A3007 RMK AO2 SLP199 T10171061 58004
Loading
Personal Weather Stations






























Interactive Weather Map New forecast layout! Learn more

10-Day Weather Forecast

Advertisements
Track Severe Weather on mobile